Time;durP1;ratioP1;P1;durP2;ratioP2;P2;SDS_P1;SDS_P2;PMS_P1;PMS_P2;Temp;Humidity;BMP_temperature;BMP_pressure;BME280_temperature;BME280_humidity;BME280_pressure;Samples;Min_cycle;Max_cycle;Signal;HPM_P1;HPM_P2
2022/08/14 00:00:01;;;;;;;;;;;20.70;99.90;;;;;;5086440;28;19991;-72
2022/08/14 00:02:29;;;;;;;;;;;20.70;99.90;;;;;;5086152;28;19970;-71
2022/08/14 00:04:56;;;;;;;;;;;20.60;99.90;;;;;;5085256;28;20049;-71
2022/08/14 00:07:22;;;;;;;;;;;20.60;99.90;;;;;;5086038;28;20254;-71
2022/08/14 00:09:49;;;;;;;;;;;20.50;99.90;;;;;;5086047;28;19921;-71
2022/08/14 00:12:16;;;;;;;;;;;20.50;99.90;;;;;;5086033;28;19927;-72
2022/08/14 00:14:42;;;;;;;;;;;20.50;99.90;;;;;;5085890;28;20243;-72
2022/08/14 00:17:09;;;;;;;;;;;20.40;99.90;;;;;;5085864;28;20211;-71
2022/08/14 00:19:37;;;;;;;;;;;20.50;99.90;;;;;;5085882;28;19920;-70
2022/08/14 00:22:04;;;;;;;;;;;20.40;99.90;;;;;;5085267;28;20174;-71
2022/08/14 00:24:30;;;;;;;;;;;20.30;99.90;;;;;;5085780;28;19927;-71
2022/08/14 00:26:57;;;;;;;;;;;20.30;99.90;;;;;;5085769;28;19987;-71
2022/08/14 00:29:24;;;;;;;;;;;20.30;99.90;;;;;;5085897;28;20171;-72
2022/08/14 00:31:50;;;;;;;;;;;20.20;99.90;;;;;;5085724;28;19921;-71
2022/08/14 00:34:17;;;;;;;;;;;20.20;99.90;;;;;;5085579;28;19960;-72
2022/08/14 00:36:45;;;;;;;;;;;20.10;99.90;;;;;;5085665;28;19928;-72
2022/08/14 00:39:12;;;;;;;;;;;20.10;99.90;;;;;;5085895;28;20123;-72
2022/08/14 00:41:39;;;;;;;;;;;20.00;99.90;;;;;;5085578;28;19988;-72
2022/08/14 00:44:06;;;;;;;;;;;19.90;99.90;;;;;;5085282;28;19921;-71
2022/08/14 00:46:33;;;;;;;;;;;19.90;99.90;;;;;;5085465;28;19956;-72
2022/08/14 00:49:00;;;;;;;;;;;19.80;99.90;;;;;;5085173;28;19987;-72
2022/08/14 00:51:31;;;;;;;;;;;19.70;99.90;;;;;;5085080;28;19920;-73
2022/08/14 00:54:01;;;;;;;;;;;19.70;99.90;;;;;;5084863;28;19921;-71
2022/08/14 00:56:28;;;;;;;;;;;19.60;99.90;;;;;;5085116;28;20203;-71
2022/08/14 00:58:55;;;;;;;;;;;19.60;99.90;;;;;;5085237;28;19920;-72
2022/08/14 01:01:22;;;;;;;;;;;19.60;99.90;;;;;;5084675;28;19935;-71
2022/08/14 01:03:49;;;;;;;;;;;19.50;99.90;;;;;;5084531;28;19956;-72
2022/08/14 01:06:16;;;;;;;;;;;19.50;99.90;;;;;;5084969;28;19924;-72
2022/08/14 01:08:44;;;;;;;;;;;19.40;99.90;;;;;;5085166;28;19927;-72
2022/08/14 01:11:14;;;;;;;;;;;19.30;99.90;;;;;;5085027;28;20247;-71
2022/08/14 01:13:42;;;;;;;;;;;19.30;99.90;;;;;;5084625;28;20235;-71
2022/08/14 01:16:10;;;;;;;;;;;19.20;99.90;;;;;;5084825;28;19927;-72
2022/08/14 01:21:23;;;;;;;;;;;19.10;99.90;;;;;;5084947;28;19954;-71
2022/08/14 01:23:52;;;;;;;;;;;19.00;99.90;;;;;;5083887;28;19920;-72
2022/08/14 01:26:22;;;;;;;;;;;19.00;99.90;;;;;;5084606;28;19921;-71
2022/08/14 01:28:50;;;;;;;;;;;18.90;99.90;;;;;;5084607;28;19925;-72
2022/08/14 01:31:17;;;;;;;;;;;18.90;99.90;;;;;;5084680;28;19952;-71
2022/08/14 01:33:46;;;;;;;;;;;18.90;99.90;;;;;;5084154;28;20166;-72
2022/08/14 01:36:14;;;;;;;;;;;18.90;99.90;;;;;;5084284;28;19952;-72
2022/08/14 01:38:44;;;;;;;;;;;18.90;99.90;;;;;;5084342;28;19960;-72
2022/08/14 01:41:12;;;;;;;;;;;18.80;99.90;;;;;;5084325;28;19921;-72
2022/08/14 01:43:43;;;;;;;;;;;18.90;99.90;;;;;;5084521;28;19967;-71
2022/08/14 01:46:10;;;;;;;;;;;18.80;99.90;;;;;;5084305;28;19920;-72
2022/08/14 01:48:37;;;;;;;;;;;18.80;99.90;;;;;;5084058;28;20219;-70
2022/08/14 01:51:04;;;;;;;;;;;18.70;99.90;;;;;;5084143;28;19999;-71
2022/08/14 01:53:31;;;;;;;;;;;18.70;99.90;;;;;;5083785;28;19983;-71
2022/08/14 01:56:02;;;;;;;;;;;18.70;99.90;;;;;;5083755;28;19920;-71
2022/08/14 01:58:28;;;;;;;;;;;18.60;99.90;;;;;;5083903;28;19927;-72
2022/08/14 02:00:57;;;;;;;;;;;18.60;99.90;;;;;;5083828;28;19927;-71
2022/08/14 02:03:24;;;;;;;;;;;18.60;99.90;;;;;;5082786;28;19921;-71
2022/08/14 02:05:51;;;;;;;;;;;18.50;99.90;;;;;;5083498;28;19920;-72
2022/08/14 02:08:17;;;;;;;;;;;18.50;99.90;;;;;;5083677;28;20254;-71
2022/08/14 02:11:15;;;;;;;;;;;18.50;99.90;;;;;;5083461;28;19999;-71
2022/08/14 02:13:32;;;;;;;;;;;18.50;99.90;;;;;;5082649;28;19961;-72
2022/08/14 02:15:59;;;;;;;;;;;18.50;99.90;;;;;;5083682;28;19983;-71
2022/08/14 02:18:26;;;;;;;;;;;18.40;99.90;;;;;;5083812;28;19983;-71
2022/08/14 02:20:53;;;;;;;;;;;18.40;99.90;;;;;;5083666;28;19921;-71
2022/08/14 02:23:20;;;;;;;;;;;18.40;99.90;;;;;;5083451;28;19924;-70
2022/08/14 02:25:47;;;;;;;;;;;18.30;99.90;;;;;;5083684;28;19927;-70
2022/08/14 02:28:13;;;;;;;;;;;18.30;99.90;;;;;;5083590;28;19963;-71
2022/08/14 02:30:41;;;;;;;;;;;18.20;99.90;;;;;;5083546;28;19920;-70
2022/08/14 02:33:08;;;;;;;;;;;18.20;99.90;;;;;;5083256;28;20162;-70
2022/08/14 02:35:35;;;;;;;;;;;18.10;99.90;;;;;;5083180;28;20000;-72
2022/08/14 02:38:02;;;;;;;;;;;18.10;99.90;;;;;;5083713;28;19920;-72
2022/08/14 02:40:31;;;;;;;;;;;18.10;99.90;;;;;;5083313;28;19921;-72
2022/08/14 02:42:58;;;;;;;;;;;18.00;99.90;;;;;;5083167;28;20157;-72
2022/08/14 02:45:27;;;;;;;;;;;18.00;99.90;;;;;;5083174;28;19927;-73
2022/08/14 02:47:56;;;;;;;;;;;17.90;99.90;;;;;;5083281;28;20123;-73
2022/08/14 02:50:23;;;;;;;;;;;17.80;99.90;;;;;;5083485;28;19921;-70
2022/08/14 02:52:49;;;;;;;;;;;17.80;99.90;;;;;;5082935;28;19921;-72
2022/08/14 02:55:16;;;;;;;;;;;17.70;99.90;;;;;;5083495;28;19995;-70
2022/08/14 02:57:43;;;;;;;;;;;17.70;99.90;;;;;;5083369;28;20039;-70
2022/08/14 03:00:12;;;;;;;;;;;17.70;99.90;;;;;;5083281;28;19955;-70
2022/08/14 03:02:41;;;;;;;;;;;17.60;99.90;;;;;;5082900;28;20093;-71
2022/08/14 03:05:11;;;;;;;;;;;17.60;99.90;;;;;;5082503;28;19921;-72
2022/08/14 03:07:38;;;;;;;;;;;17.50;99.90;;;;;;5106673;22;19920;-87
2022/08/14 03:10:05;;;;;;;;;;;17.50;99.90;;;;;;5082848;28;19925;-87
2022/08/14 03:12:33;;;;;;;;;;;17.50;99.90;;;;;;5082363;28;20127;-86
2022/08/14 03:15:02;;;;;;;;;;;17.50;99.90;;;;;;5082013;28;19921;-87
2022/08/14 03:17:29;;;;;;;;;;;17.50;99.90;;;;;;5081130;28;19928;-87
2022/08/14 03:19:56;;;;;;;;;;;17.40;99.90;;;;;;5082785;28;19940;-87
2022/08/14 03:22:24;;;;;;;;;;;17.40;99.90;;;;;;5096986;22;19936;-71
2022/08/14 03:24:50;;;;;;;;;;;17.40;99.90;;;;;;5086523;28;19920;-71
2022/08/14 03:27:17;;;;;;;;;;;17.30;99.90;;;;;;5086740;28;19959;-71
2022/08/14 03:29:44;;;;;;;;;;;17.30;99.90;;;;;;5086683;28;19948;-71
2022/08/14 03:32:11;;;;;;;;;;;17.20;99.90;;;;;;5085998;28;19927;-71
2022/08/14 03:34:38;;;;;;;;;;;17.20;99.90;;;;;;5086499;28;19931;-71
2022/08/14 03:37:05;;;;;;;;;;;17.10;99.90;;;;;;5087051;28;19920;-71
2022/08/14 03:39:33;;;;;;;;;;;17.10;99.90;;;;;;5086815;28;20146;-71
2022/08/14 03:41:59;;;;;;;;;;;17.10;99.90;;;;;;5086627;28;19987;-71
2022/08/14 03:44:26;;;;;;;;;;;17.00;99.90;;;;;;5086375;28;19936;-71
2022/08/14 03:46:54;;;;;;;;;;;16.90;99.90;;;;;;5085939;28;20385;-71
2022/08/14 03:49:23;;;;;;;;;;;16.90;99.90;;;;;;5086398;28;20208;-71
2022/08/14 03:51:50;;;;;;;;;;;16.90;99.90;;;;;;5086454;28;19920;-71
2022/08/14 03:54:16;;;;;;;;;;;16.90;99.90;;;;;;5085969;28;20179;-71
2022/08/14 03:56:44;;;;;;;;;;;16.80;99.90;;;;;;5086030;28;19948;-70
2022/08/14 03:59:12;;;;;;;;;;;16.80;99.90;;;;;;5086500;28;19951;-73
2022/08/14 04:01:39;;;;;;;;;;;16.80;99.90;;;;;;5086374;28;19920;-70
2022/08/14 04:04:06;;;;;;;;;;;16.80;99.90;;;;;;5086038;28;19943;-71
2022/08/14 04:06:33;;;;;;;;;;;16.80;99.90;;;;;;5086060;28;20123;-71
2022/08/14 04:09:00;;;;;;;;;;;16.70;99.90;;;;;;5086114;28;19920;-71
2022/08/14 04:11:28;;;;;;;;;;;16.70;99.90;;;;;;5086045;28;20031;-71
2022/08/14 04:13:56;;;;;;;;;;;16.70;99.90;;;;;;5085755;28;19920;-72
2022/08/14 04:16:23;;;;;;;;;;;16.60;99.90;;;;;;5085738;28;19959;-71
2022/08/14 04:18:51;;;;;;;;;;;16.60;99.90;;;;;;5086085;28;19947;-71
2022/08/14 04:21:18;;;;;;;;;;;16.60;99.90;;;;;;5085626;28;19920;-71
2022/08/14 04:23:46;;;;;;;;;;;16.50;99.90;;;;;;5085565;28;19963;-71
2022/08/14 04:26:14;;;;;;;;;;;16.50;99.90;;;;;;5085546;28;19920;-71
2022/08/14 04:28:41;;;;;;;;;;;16.50;99.90;;;;;;5086174;28;19927;-71
2022/08/14 04:31:09;;;;;;;;;;;16.50;99.90;;;;;;5085226;28;19952;-71
2022/08/14 04:33:36;;;;;;;;;;;16.50;99.90;;;;;;5085120;28;19967;-71
2022/08/14 04:36:03;;;;;;;;;;;16.50;99.90;;;;;;5084378;28;19962;-71
2022/08/14 04:43:58;;;;;;;;;;;16.50;99.90;;;;;;5085275;28;19988;-71
2022/08/14 04:46:27;;;;;;;;;;;16.50;99.90;;;;;;5085760;28;19952;-71
2022/08/14 04:48:53;;;;;;;;;;;16.50;99.90;;;;;;5085303;28;19987;-71
2022/08/14 04:51:25;;;;;;;;;;;16.60;99.90;;;;;;5085367;28;19924;-71
2022/08/14 04:53:52;;;;;;;;;;;16.50;99.90;;;;;;5085158;28;19927;-71
2022/08/14 04:56:21;;;;;;;;;;;16.50;99.90;;;;;;5085150;28;19983;-71
2022/08/14 04:58:48;;;;;;;;;;;16.40;99.90;;;;;;5085186;28;20155;-71
2022/08/14 05:01:16;;;;;;;;;;;16.40;99.90;;;;;;5085144;28;19927;-71
2022/08/14 05:03:44;;;;;;;;;;;16.40;99.90;;;;;;5084989;28;19920;-71
2022/08/14 05:06:12;;;;;;;;;;;16.50;99.90;;;;;;5085077;28;19921;-71
2022/08/14 05:08:39;;;;;;;;;;;16.50;99.90;;;;;;5085047;28;19958;-72
2022/08/14 05:11:07;;;;;;;;;;;16.50;99.90;;;;;;5085043;28;19927;-71
2022/08/14 05:13:35;;;;;;;;;;;16.50;99.90;;;;;;5084583;28;19921;-71
2022/08/14 05:16:03;;;;;;;;;;;16.60;99.90;;;;;;5084543;28;20249;-71
2022/08/14 05:18:31;;;;;;;;;;;16.60;99.90;;;;;;5084788;28;20227;-72
2022/08/14 05:21:00;;;;;;;;;;;16.60;99.90;;;;;;5084841;28;20154;-71
2022/08/14 05:23:28;;;;;;;;;;;16.70;99.90;;;;;;5084476;28;20207;-71
2022/08/14 05:25:58;;;;;;;;;;;16.70;99.90;;;;;;5084743;28;19987;-71
2022/08/14 05:28:26;;;;;;;;;;;16.70;99.90;;;;;;5084161;28;19971;-71
2022/08/14 05:30:54;;;;;;;;;;;16.80;99.90;;;;;;5084618;28;19947;-71
2022/08/14 05:33:23;;;;;;;;;;;16.90;99.90;;;;;;5083333;28;19967;-71
2022/08/14 05:35:50;;;;;;;;;;;16.90;99.90;;;;;;5084438;28;19920;-71
2022/08/14 05:38:20;;;;;;;;;;;17.10;99.90;;;;;;5084176;28;19959;-71
2022/08/14 05:40:48;;;;;;;;;;;17.20;99.90;;;;;;5084314;28;19921;-71
2022/08/14 05:43:14;;;;;;;;;;;17.20;99.90;;;;;;5084151;28;19951;-71
2022/08/14 05:45:42;;;;;;;;;;;17.40;99.90;;;;;;5084245;28;20216;-71
2022/08/14 05:48:12;;;;;;;;;;;17.50;99.90;;;;;;5084241;28;19921;-71
2022/08/14 05:50:39;;;;;;;;;;;17.60;99.90;;;;;;5084177;28;20122;-71
2022/08/14 05:53:06;;;;;;;;;;;17.70;99.90;;;;;;5083854;28;20000;-71
2022/08/14 05:55:34;;;;;;;;;;;17.80;99.90;;;;;;5083711;28;19995;-71
2022/08/14 05:58:01;;;;;;;;;;;17.90;99.90;;;;;;5084171;28;19927;-71
2022/08/14 06:00:32;;;;;;;;;;;18.00;99.90;;;;;;5084046;28;19921;-71
2022/08/14 06:03:00;;;;;;;;;;;18.10;99.90;;;;;;5083872;28;19920;-71
2022/08/14 06:05:27;;;;;;;;;;;18.20;99.90;;;;;;5083981;28;19991;-71
2022/08/14 06:07:54;;;;;;;;;;;18.30;99.90;;;;;;5083887;28;19983;-71
2022/08/14 06:10:20;;;;;;;;;;;18.40;99.90;;;;;;5083733;28;19943;-71
2022/08/14 06:12:48;;;;;;;;;;;18.50;99.90;;;;;;5083586;28;20166;-71
2022/08/14 06:15:15;;;;;;;;;;;18.60;99.90;;;;;;5083865;28;19991;-71
2022/08/14 06:17:45;;;;;;;;;;;18.80;99.90;;;;;;5083865;28;19952;-71
2022/08/14 06:20:13;;;;;;;;;;;18.90;99.90;;;;;;5083785;28;19920;-71
2022/08/14 06:22:40;;;;;;;;;;;18.90;99.90;;;;;;5083274;28;19921;-71
2022/08/14 06:25:07;;;;;;;;;;;19.00;99.90;;;;;;5083715;28;19948;-71
2022/08/14 06:27:35;;;;;;;;;;;19.10;99.90;;;;;;5083626;28;19987;-70
2022/08/14 06:30:03;;;;;;;;;;;19.20;99.90;;;;;;5083572;28;20183;-71
2022/08/14 06:32:30;;;;;;;;;;;19.30;99.90;;;;;;5082558;28;19991;-71
2022/08/14 06:34:57;;;;;;;;;;;19.40;99.90;;;;;;5083268;28;19951;-71
2022/08/14 06:37:23;;;;;;;;;;;19.50;99.90;;;;;;5083309;28;19952;-72
2022/08/14 06:39:50;;;;;;;;;;;19.50;99.90;;;;;;5083628;28;19920;-71
2022/08/14 06:42:17;;;;;;;;;;;19.60;99.90;;;;;;5083587;28;19963;-71
2022/08/14 06:44:43;;;;;;;;;;;19.70;99.90;;;;;;5083138;28;19927;-71
2022/08/14 06:47:11;;;;;;;;;;;19.70;99.90;;;;;;5083456;28;19921;-71
2022/08/14 06:49:38;;;;;;;;;;;19.80;99.90;;;;;;5083377;28;19987;-71
2022/08/14 06:52:05;;;;;;;;;;;19.90;99.90;;;;;;5083410;28;20137;-71
2022/08/14 06:54:32;;;;;;;;;;;20.00;99.90;;;;;;5082819;28;19979;-71
2022/08/14 06:56:58;;;;;;;;;;;20.10;99.90;;;;;;5083131;28;19982;-71
2022/08/14 06:59:25;;;;;;;;;;;20.20;99.90;;;;;;5089402;28;19943;-71
2022/08/14 07:07:22;;;;;;;;;;;20.40;99.90;;;;;;5090168;28;20345;-72
2022/08/14 07:09:49;;;;;;;;;;;20.50;99.90;;;;;;5089749;28;19920;-72
2022/08/14 07:12:15;;;;;;;;;;;20.70;99.90;;;;;;5089818;28;19920;-72
2022/08/14 07:14:42;;;;;;;;;;;20.70;99.90;;;;;;5089454;28;19983;-72
2022/08/14 07:17:08;;;;;;;;;;;20.80;99.90;;;;;;5089916;28;20281;-72
2022/08/14 07:19:37;;;;;;;;;;;20.90;99.90;;;;;;5089683;28;19928;-72
2022/08/14 07:22:03;;;;;;;;;;;21.00;99.90;;;;;;5089676;28;19929;-72
2022/08/14 07:24:30;;;;;;;;;;;21.10;99.90;;;;;;5089174;28;20235;-72
2022/08/14 07:26:57;;;;;;;;;;;21.20;99.90;;;;;;5089571;28;19956;-72
2022/08/14 07:29:23;;;;;;;;;;;21.30;99.90;;;;;;5089524;28;19935;-72
2022/08/14 07:31:50;;;;;;;;;;;21.40;99.90;;;;;;5088759;28;19928;-72
2022/08/14 07:34:17;;;;;;;;;;;21.40;99.90;;;;;;5089630;28;19927;-71
2022/08/14 07:36:47;;;;;;;;;;;21.50;99.90;;;;;;5089265;28;19967;-71
2022/08/14 07:39:13;;;;;;;;;;;21.60;99.90;;;;;;5089624;28;19921;-72
2022/08/14 07:41:43;;;;;;;;;;;21.70;99.90;;;;;;5089271;28;20204;-71
2022/08/14 07:44:10;;;;;;;;;;;21.80;99.90;;;;;;5089423;28;19924;-72
2022/08/14 07:46:36;;;;;;;;;;;21.80;99.90;;;;;;5089650;28;19924;-72
2022/08/14 07:49:03;;;;;;;;;;;21.90;99.90;;;;;;5089595;28;19987;-72
2022/08/14 07:51:30;;;;;;;;;;;22.10;99.90;;;;;;5089225;28;19971;-72
2022/08/14 07:53:58;;;;;;;;;;;22.10;99.90;;;;;;5089005;28;20267;-72
2022/08/14 07:56:26;;;;;;;;;;;22.20;99.90;;;;;;5089057;28;19983;-72
2022/08/14 07:58:53;;;;;;;;;;;22.20;99.90;;;;;;5089457;28;19943;-72
2022/08/14 08:01:20;;;;;;;;;;;22.30;99.90;;;;;;5089803;28;20107;-72
2022/08/14 08:03:48;;;;;;;;;;;22.40;99.90;;;;;;5089160;28;19948;-72
2022/08/14 08:06:16;;;;;;;;;;;22.50;99.90;;;;;;5090929;28;20147;-73
2022/08/14 08:08:43;;;;;;;;;;;22.60;99.90;;;;;;5088858;28;19927;-72
2022/08/14 08:11:12;;;;;;;;;;;22.80;99.90;;;;;;5086375;28;19963;-72
2022/08/14 08:13:41;;;;;;;;;;;22.80;99.90;;;;;;5085949;28;20175;-72
2022/08/14 08:16:08;;;;;;;;;;;22.90;99.90;;;;;;5085914;28;19920;-73
2022/08/14 08:18:35;;;;;;;;;;;23.00;99.90;;;;;;5086156;28;19992;-72
2022/08/14 08:21:01;;;;;;;;;;;23.00;99.90;;;;;;5085865;28;19955;-73
2022/08/14 08:23:29;;;;;;;;;;;23.10;99.90;;;;;;5085583;28;19958;-73
2022/08/14 08:25:57;;;;;;;;;;;23.10;99.90;;;;;;5086096;28;19959;-73
2022/08/14 08:28:26;;;;;;;;;;;23.20;99.90;;;;;;5085849;28;19921;-72
2022/08/14 08:30:55;;;;;;;;;;;23.30;99.90;;;;;;5086512;28;19968;-72
2022/08/14 08:33:22;;;;;;;;;;;23.40;99.90;;;;;;5085536;28;19921;-72
2022/08/14 08:35:49;;;;;;;;;;;23.60;99.90;;;;;;5085435;28;20150;-71
2022/08/14 08:38:17;;;;;;;;;;;23.60;99.90;;;;;;5085736;28;19928;-72
2022/08/14 08:40:45;;;;;;;;;;;23.70;99.90;;;;;;5085792;28;19995;-71
2022/08/14 08:43:17;;;;;;;;;;;23.70;99.90;;;;;;5085266;28;19920;-71
2022/08/14 08:45:53;;;;;;;;;;;23.70;99.90;;;;;;5085790;28;19959;-73
2022/08/14 08:48:19;;;;;;;;;;;23.80;99.90;;;;;;5085487;28;20166;-72
2022/08/14 08:50:46;;;;;;;;;;;24.00;99.90;;;;;;5085375;28;19948;-71
2022/08/14 08:53:13;;;;;;;;;;;24.10;99.90;;;;;;5085189;28;19956;-71
2022/08/14 08:55:41;;;;;;;;;;;24.10;99.90;;;;;;5085460;28;19947;-71
2022/08/14 08:58:08;;;;;;;;;;;24.20;99.90;;;;;;5085271;28;20174;-72
2022/08/14 09:00:36;;;;;;;;;;;24.20;99.90;;;;;;5085268;28;19921;-72
2022/08/14 09:03:06;;;;;;;;;;;24.40;99.90;;;;;;5084814;28;20128;-71
2022/08/14 09:05:33;;;;;;;;;;;24.40;99.90;;;;;;5085172;28;19920;-71
2022/08/14 09:08:10;;;;;;;;;;;24.50;99.90;;;;;;5084992;28;19921;-72
2022/08/14 09:10:37;;;;;;;;;;;24.60;99.90;;;;;;5085029;28;19927;-71
2022/08/14 09:13:04;;;;;;;;;;;24.70;99.90;;;;;;5084743;28;20234;-71
2022/08/14 09:15:31;;;;;;;;;;;24.90;99.90;;;;;;5084615;28;20179;-72
2022/08/14 09:17:57;;;;;;;;;;;25.00;99.90;;;;;;5084785;28;19929;-72
2022/08/14 09:20:25;;;;;;;;;;;25.00;99.90;;;;;;5084690;28;19948;-72
2022/08/14 09:22:54;;;;;;;;;;;25.10;99.90;;;;;;5083624;28;19924;-72
2022/08/14 09:25:20;;;;;;;;;;;25.20;99.90;;;;;;5084866;28;20211;-71
2022/08/14 09:27:47;;;;;;;;;;;25.30;99.90;;;;;;5085096;28;19927;-72
2022/08/14 09:30:14;;;;;;;;;;;25.40;99.90;;;;;;5084796;28;19960;-71
2022/08/14 09:32:45;;;;;;;;;;;25.50;99.90;;;;;;5084659;28;20152;-72
2022/08/14 09:35:15;;;;;;;;;;;25.60;99.90;;;;;;5085004;28;19920;-71
2022/08/14 09:37:48;;;;;;;;;;;25.70;99.90;;;;;;5084290;28;19948;-71
2022/08/14 09:40:22;;;;;;;;;;;25.80;99.90;;;;;;5084372;28;19927;-71
2022/08/14 09:42:52;;;;;;;;;;;25.80;99.90;;;;;;5084335;28;19959;-71
2022/08/14 09:45:19;;;;;;;;;;;26.00;99.90;;;;;;5084446;28;20023;-71
2022/08/14 09:47:48;;;;;;;;;;;26.10;99.90;;;;;;5084107;28;19924;-71
2022/08/14 09:50:24;;;;;;;;;;;26.10;99.90;;;;;;5084241;28;19920;-71
2022/08/14 09:52:55;;;;;;;;;;;26.20;99.90;;;;;;5083720;28;20207;-71
2022/08/14 09:55:23;;;;;;;;;;;26.30;99.90;;;;;;5084239;28;19951;-72
2022/08/14 09:57:50;;;;;;;;;;;26.40;99.90;;;;;;5083997;28;19951;-72
2022/08/14 10:00:18;;;;;;;;;;;26.40;99.90;;;;;;5084168;28;19987;-72
2022/08/14 10:02:52;;;;;;;;;;;26.60;99.90;;;;;;5084001;28;19942;-70
2022/08/14 10:05:28;;;;;;;;;;;26.70;99.90;;;;;;5083726;28;19920;-72
2022/08/14 10:07:57;;;;;;;;;;;26.80;99.90;;;;;;5083790;28;19925;-70
2022/08/14 10:10:31;;;;;;;;;;;26.80;99.90;;;;;;5084024;28;19952;-72
2022/08/14 10:12:58;;;;;;;;;;;26.90;99.90;;;;;;5083454;28;19959;-70
2022/08/14 10:15:26;;;;;;;;;;;27.00;99.90;;;;;;5083737;28;19974;-70
2022/08/14 10:18:08;;;;;;;;;;;27.00;99.90;;;;;;5083516;28;20165;-73
2022/08/14 10:20:36;;;;;;;;;;;27.10;99.90;;;;;;5083584;28;19921;-71
2022/08/14 10:23:14;;;;;;;;;;;27.10;99.90;;;;;;5082881;28;19956;-71
2022/08/14 10:25:43;;;;;;;;;;;27.10;99.90;;;;;;5083528;28;19920;-71
2022/08/14 10:28:14;;;;;;;;;;;27.10;99.90;;;;;;5083371;28;20204;-70
2022/08/14 10:30:41;;;;;;;;;;;27.20;99.90;;;;;;5083451;28;19928;-71
2022/08/14 10:33:07;;;;;;;;;;;27.40;99.90;;;;;;5081510;28;20207;-70
2022/08/14 10:35:41;;;;;;;;;;;27.50;99.90;;;;;;5083505;28;19920;-71
2022/08/14 10:38:09;;;;;;;;;;;27.60;99.90;;;;;;5083282;28;19926;-72
2022/08/14 10:40:38;;;;;;;;;;;27.70;99.90;;;;;;5083503;28;20031;-72
2022/08/14 10:43:15;;;;;;;;;;;27.60;99.90;;;;;;5082879;28;19920;-69
2022/08/14 10:45:53;;;;;;;;;;;27.70;99.90;;;;;;5083571;28;20287;-72
2022/08/14 10:48:20;;;;;;;;;;;27.80;99.90;;;;;;5083534;28;19921;-71
2022/08/14 10:50:50;;;;;;;;;;;27.90;99.50;;;;;;5083214;28;19963;-69
2022/08/14 10:53:27;;;;;;;;;;;28.00;99.70;;;;;;5082994;28;19920;-71
2022/08/14 10:55:59;;;;;;;;;;;28.10;99.30;;;;;;5083165;28;20263;-71
2022/08/14 10:58:28;;;;;;;;;;;27.80;99.40;;;;;;5083390;28;19920;-70
2022/08/14 11:00:56;;;;;;;;;;;27.70;99.60;;;;;;5083496;28;19956;-71
2022/08/14 11:03:24;;;;;;;;;;;27.50;99.90;;;;;;5082920;28;20154;-71
2022/08/14 11:05:51;;;;;;;;;;;27.50;99.90;;;;;;5083112;28;19966;-71
2022/08/14 11:08:29;;;;;;;;;;;27.70;99.70;;;;;;5083116;28;19928;-71
2022/08/14 11:10:57;;;;;;;;;;;27.90;99.40;;;;;;5083664;28;19921;-71
2022/08/14 11:13:26;;;;;;;;;;;28.10;98.90;;;;;;5083044;28;19959;-72
2022/08/14 11:15:54;;;;;;;;;;;28.20;98.70;;;;;;5082968;28;19979;-71
2022/08/14 11:18:21;;;;;;;;;;;28.30;98.20;;;;;;5082833;28;19924;-72
2022/08/14 11:20:49;;;;;;;;;;;28.50;98.40;;;;;;5082942;28;20279;-72
2022/08/14 11:23:17;;;;;;;;;;;28.80;98.10;;;;;;5082663;28;19988;-71
2022/08/14 11:25:44;;;;;;;;;;;29.10;97.90;;;;;;5082905;28;19982;-71
2022/08/14 11:28:12;;;;;;;;;;;29.40;97.50;;;;;;5082984;28;19928;-71
2022/08/14 11:30:41;;;;;;;;;;;29.40;96.70;;;;;;5082917;28;19988;-72
2022/08/14 11:33:08;;;;;;;;;;;29.50;97.20;;;;;;5081707;28;19968;-71
2022/08/14 11:35:36;;;;;;;;;;;29.40;96.20;;;;;;5083165;28;19988;-70
2022/08/14 11:38:04;;;;;;;;;;;29.10;96.20;;;;;;5082692;28;20131;-71
2022/08/14 11:40:33;;;;;;;;;;;29.00;96.40;;;;;;5082814;28;19984;-72
2022/08/14 11:43:01;;;;;;;;;;;29.10;96.10;;;;;;5082566;28;19927;-72
2022/08/14 11:45:31;;;;;;;;;;;29.30;96.10;;;;;;5085597;28;19984;-72
2022/08/14 11:48:00;;;;;;;;;;;29.50;95.50;;;;;;5086641;28;19960;-72
2022/08/14 11:50:29;;;;;;;;;;;29.80;95.20;;;;;;5086644;28;19927;-71
2022/08/14 11:52:56;;;;;;;;;;;30.00;94.70;;;;;;5086065;28;20211;-71
2022/08/14 11:55:25;;;;;;;;;;;30.30;94.60;;;;;;5086411;28;20140;-71
2022/08/14 11:58:00;;;;;;;;;;;30.50;93.60;;;;;;5086189;28;19927;-72
2022/08/14 12:00:26;;;;;;;;;;;30.60;92.40;;;;;;5086557;28;19924;-72
2022/08/14 12:02:54;;;;;;;;;;;30.50;92.30;;;;;;5085914;28;19920;-73
2022/08/14 12:05:32;;;;;;;;;;;30.50;92.30;;;;;;5086394;28;19984;-72
2022/08/14 12:07:59;;;;;;;;;;;30.60;92.70;;;;;;5086081;28;20191;-71
2022/08/14 12:10:28;;;;;;;;;;;30.80;92.60;;;;;;5086039;28;19952;-72
2022/08/14 12:12:55;;;;;;;;;;;30.90;92.10;;;;;;5085291;28;19927;-73
2022/08/14 12:15:31;;;;;;;;;;;30.60;91.70;;;;;;5085829;28;20126;-72
2022/08/14 12:17:59;;;;;;;;;;;30.30;91.90;;;;;;5086071;28;19987;-71
2022/08/14 12:20:31;;;;;;;;;;;30.00;92.30;;;;;;5086037;28;19928;-72
2022/08/14 12:23:00;;;;;;;;;;;29.80;92.30;;;;;;5084817;28;19928;-72
2022/08/14 12:25:27;;;;;;;;;;;30.00;92.70;;;;;;5086134;28;19927;-71
2022/08/14 12:27:54;;;;;;;;;;;30.20;92.60;;;;;;5085838;28;19927;-71
2022/08/14 12:30:32;;;;;;;;;;;30.50;91.90;;;;;;5085699;28;19956;-71
2022/08/14 12:33:00;;;;;;;;;;;30.80;91.60;;;;;;5085417;28;19932;-70
2022/08/14 12:35:37;;;;;;;;;;;30.90;91.30;;;;;;5085421;28;19926;-72
2022/08/14 12:38:05;;;;;;;;;;;31.00;90.60;;;;;;5085678;28;19921;-72
2022/08/14 12:40:32;;;;;;;;;;;31.10;90.50;;;;;;5085489;28;19956;-71
2022/08/14 12:43:02;;;;;;;;;;;31.10;91.10;;;;;;5085036;28;19987;-72
2022/08/14 12:45:30;;;;;;;;;;;31.40;91.00;;;;;;5085595;28;19921;-72
2022/08/14 12:47:59;;;;;;;;;;;31.60;90.60;;;;;;5085181;28;19955;-72
2022/08/14 12:50:34;;;;;;;;;;;31.70;90.00;;;;;;5085566;28;20052;-72
2022/08/14 12:53:00;;;;;;;;;;;31.60;90.00;;;;;;5085124;28;19920;-72
2022/08/14 12:55:31;;;;;;;;;;;31.70;90.00;;;;;;5084778;28;19983;-72
2022/08/14 12:57:59;;;;;;;;;;;31.70;88.50;;;;;;5085035;28;19966;-71
2022/08/14 13:00:26;;;;;;;;;;;31.80;89.70;;;;;;5085100;28;19921;-72
2022/08/14 13:02:53;;;;;;;;;;;32.00;89.30;;;;;;5085041;28;20000;-73
2022/08/14 13:05:21;;;;;;;;;;;32.30;88.30;;;;;;5085104;28;20139;-73
2022/08/14 13:07:50;;;;;;;;;;;32.50;87.60;;;;;;5085213;28;19924;-72
2022/08/14 13:10:19;;;;;;;;;;;32.60;85.70;;;;;;5084915;28;20204;-72
2022/08/14 13:12:48;;;;;;;;;;;32.70;86.10;;;;;;5084653;28;19920;-72
2022/08/14 13:15:16;;;;;;;;;;;32.90;84.90;;;;;;5084806;28;19948;-72
2022/08/14 13:17:45;;;;;;;;;;;33.10;83.40;;;;;;5084874;28;19920;-72
2022/08/14 13:20:13;;;;;;;;;;;33.20;83.30;;;;;;5084937;28;19921;-72
2022/08/14 13:22:43;;;;;;;;;;;33.20;84.20;;;;;;5084252;28;19983;-72
2022/08/14 13:25:11;;;;;;;;;;;32.90;83.10;;;;;;5084770;28;19959;-72
2022/08/14 13:58:44;;;;;;;;;;;32.60;80.80;;;;;;5084041;28;19966;-72
2022/08/14 14:01:12;;;;;;;;;;;32.30;81.60;;;;;;5084268;28;19928;-73
2022/08/14 14:03:39;;;;;;;;;;;32.30;81.10;;;;;;5083838;28;20113;-72
2022/08/14 14:06:06;;;;;;;;;;;32.50;81.30;;;;;;5083897;28;19987;-71
2022/08/14 14:08:35;;;;;;;;;;;32.50;80.50;;;;;;5083656;28;19987;-74
2022/08/14 14:11:02;;;;;;;;;;;32.40;81.10;;;;;;5083940;28;20136;-71
2022/08/14 14:13:30;;;;;;;;;;;32.30;80.50;;;;;;5083174;28;20275;-72
2022/08/14 14:16:01;;;;;;;;;;;32.50;80.60;;;;;;5083952;28;19920;-72
2022/08/14 14:18:29;;;;;;;;;;;32.80;80.00;;;;;;5083556;28;19967;-71
2022/08/14 14:20:57;;;;;;;;;;;32.90;80.20;;;;;;5083659;28;19992;-73
2022/08/14 14:23:24;;;;;;;;;;;33.10;78.20;;;;;;5083157;28;19987;-72
2022/08/14 14:25:51;;;;;;;;;;;33.00;77.20;;;;;;5083562;28;19951;-72
2022/08/14 14:28:19;;;;;;;;;;;32.60;78.00;;;;;;5083749;28;19943;-72
2022/08/14 14:30:46;;;;;;;;;;;32.20;79.10;;;;;;5083492;28;19986;-72
2022/08/14 14:33:15;;;;;;;;;;;32.00;79.50;;;;;;5082228;28;19967;-72
2022/08/14 14:35:45;;;;;;;;;;;31.80;79.70;;;;;;5083452;28;19959;-72
2022/08/14 14:38:15;;;;;;;;;;;31.70;81.10;;;;;;5083096;28;20207;-72
2022/08/14 14:40:45;;;;;;;;;;;32.00;81.70;;;;;;5083418;28;19920;-71
2022/08/14 14:43:12;;;;;;;;;;;32.50;80.70;;;;;;5084045;28;20035;-72
2022/08/14 14:45:39;;;;;;;;;;;32.80;79.10;;;;;;5083467;28;19959;-71
2022/08/14 14:48:07;;;;;;;;;;;33.10;78.90;;;;;;5083595;28;19988;-71
2022/08/14 14:50:37;;;;;;;;;;;33.40;77.70;;;;;;5083449;28;20141;-74
2022/08/14 14:53:05;;;;;;;;;;;33.60;76.80;;;;;;5083115;28;20183;-71
2022/08/14 14:55:32;;;;;;;;;;;33.70;76.40;;;;;;5083341;28;20274;-73
2022/08/14 14:57:58;;;;;;;;;;;33.80;76.40;;;;;;5083060;28;20200;-72
2022/08/14 15:00:26;;;;;;;;;;;34.00;76.10;;;;;;5083473;28;19947;-71
2022/08/14 15:02:53;;;;;;;;;;;33.90;75.70;;;;;;5083154;28;19952;-70
2022/08/14 15:05:20;;;;;;;;;;;33.90;76.10;;;;;;5083109;28;19943;-71